sensor_id;sensor_type;location;lat;lon;timestamp;pressure;altitude;pressure_sealevel;temperature;humidity
60228;BME280;46091;46.512;6.626;2022-12-07T06:03:08;96832.63;;;6.92;62.20
60228;BME280;46091;46.512;6.626;2022-12-07T06:05:11;96833.25;;;7.03;61.73
60228;BME280;46091;46.512;6.626;2022-12-07T06:07:16;96839.06;;;7.21;61.81
60228;BME280;46091;46.512;6.626;2022-12-07T06:09:19;96832.41;;;7.41;61.52
60228;BME280;46091;46.512;6.626;2022-12-07T06:11:22;96825.75;;;7.53;61.09
60228;BME280;46091;46.512;6.626;2022-12-07T06:13:42;96831.00;;;7.62;60.85
60228;BME280;46091;46.512;6.626;2022-12-07T06:15:48;96827.19;;;7.64;60.79
60228;BME280;46091;46.512;6.626;2022-12-07T06:17:50;96825.00;;;7.68;60.67
60228;BME280;46091;46.512;6.626;2022-12-07T06:19:54;96828.41;;;7.76;60.56
60228;BME280;46091;46.512;6.626;2022-12-07T06:21:57;96823.28;;;7.83;60.03
60228;BME280;46091;46.512;6.626;2022-12-07T06:24:01;96826.91;;;7.82;60.03
60228;BME280;46091;46.512;6.626;2022-12-07T06:26:04;96830.19;;;7.84;60.02
60228;BME280;46091;46.512;6.626;2022-12-07T06:28:07;96823.28;;;7.83;59.84
60228;BME280;46091;46.512;6.626;2022-12-07T06:30:10;96831.47;;;7.88;59.59
60228;BME280;46091;46.512;6.626;2022-12-07T06:32:13;96824.22;;;7.90;59.67
60228;BME280;46091;46.512;6.626;2022-12-07T06:34:17;96824.84;;;7.92;59.51
60228;BME280;46091;46.512;6.626;2022-12-07T06:36:21;96826.50;;;7.93;59.63
60228;BME280;46091;46.512;6.626;2022-12-07T06:38:28;96820.56;;;7.91;59.17
60228;BME280;46091;46.512;6.626;2022-12-07T06:40:30;96819.25;;;7.95;59.34
60228;BME280;46091;46.512;6.626;2022-12-07T06:42:36;96814.72;;;8.04;59.14
60228;BME280;46091;46.512;6.626;2022-12-07T06:44:39;96817.66;;;8.09;58.96
60228;BME280;46091;46.512;6.626;2022-12-07T06:46:41;96817.53;;;8.02;58.46
60228;BME280;46091;46.512;6.626;2022-12-07T06:48:44;96819.75;;;7.91;58.62
60228;BME280;46091;46.512;6.626;2022-12-07T06:50:47;96814.41;;;7.84;58.87
60228;BME280;46091;46.512;6.626;2022-12-07T06:52:57;96821.94;;;7.87;59.07
60228;BME280;46091;46.512;6.626;2022-12-07T06:54:59;96823.88;;;7.93;58.50
60228;BME280;46091;46.512;6.626;2022-12-07T06:57:02;96820.25;;;7.94;58.53
60228;BME280;46091;46.512;6.626;2022-12-07T06:59:06;96824.69;;;7.94;58.51
60228;BME280;46091;46.512;6.626;2022-12-07T07:01:09;96826.78;;;7.98;58.54
60228;BME280;46091;46.512;6.626;2022-12-07T07:03:12;96819.06;;;7.97;58.11
60228;BME280;46091;46.512;6.626;2022-12-07T07:05:18;96821.06;;;7.95;58.40
60228;BME280;46091;46.512;6.626;2022-12-07T07:07:22;96826.78;;;7.98;58.24
60228;BME280;46091;46.512;6.626;2022-12-07T07:09:26;96830.53;;;8.04;58.32
60228;BME280;46091;46.512;6.626;2022-12-07T07:11:29;96821.13;;;8.09;58.12
60228;BME280;46091;46.512;6.626;2022-12-07T07:13:32;96819.28;;;8.10;57.90
60228;BME280;46091;46.512;6.626;2022-12-07T07:15:37;96830.28;;;8.13;57.89
60228;BME280;46091;46.512;6.626;2022-12-07T07:17:41;96819.41;;;8.16;57.74
60228;BME280;46091;46.512;6.626;2022-12-07T07:19:44;96829.66;;;8.11;57.57
60228;BME280;46091;46.512;6.626;2022-12-07T07:21:46;96825.75;;;8.07;57.65
60228;BME280;46091;46.512;6.626;2022-12-07T07:23:51;96834.00;;;8.04;57.10
60228;BME280;46091;46.512;6.626;2022-12-07T07:25:56;96828.78;;;7.96;57.59
60228;BME280;46091;46.512;6.626;2022-12-07T07:27:58;96832.06;;;7.98;57.48
60228;BME280;46091;46.512;6.626;2022-12-07T07:30:01;96835.97;;;8.02;57.49
60228;BME280;46091;46.512;6.626;2022-12-07T07:32:05;96832.34;;;8.03;57.20
60228;BME280;46091;46.512;6.626;2022-12-07T07:34:11;96834.34;;;8.01;57.20
60228;BME280;46091;46.512;6.626;2022-12-07T07:36:13;96835.78;;;8.04;57.10
60228;BME280;46091;46.512;6.626;2022-12-07T07:38:16;96837.69;;;7.95;56.89
60228;BME280;46091;46.512;6.626;2022-12-07T07:40:22;96840.00;;;7.90;57.14
60228;BME280;46091;46.512;6.626;2022-12-07T07:42:27;96841.78;;;7.98;57.28
60228;BME280;46091;46.512;6.626;2022-12-07T07:44:32;96845.84;;;8.00;56.67
60228;BME280;46091;46.512;6.626;2022-12-07T07:46:36;96844.59;;;7.96;56.64
60228;BME280;46091;46.512;6.626;2022-12-07T07:48:38;96849.34;;;7.93;56.68
60228;BME280;46091;46.512;6.626;2022-12-07T07:50:41;96844.44;;;7.89;56.93
60228;BME280;46091;46.512;6.626;2022-12-07T07:52:44;96840.81;;;7.91;56.58
60228;BME280;46091;46.512;6.626;2022-12-07T07:54:48;96851.16;;;7.92;56.61
60228;BME280;46091;46.512;6.626;2022-12-07T07:56:52;96849.91;;;7.88;56.51
60228;BME280;46091;46.512;6.626;2022-12-07T07:58:56;96843.16;;;7.85;56.63
60228;BME280;46091;46.512;6.626;2022-12-07T08:01:03;96849.25;;;7.86;56.15
60228;BME280;46091;46.512;6.626;2022-12-07T08:03:07;96844.53;;;7.81;56.36
60228;BME280;46091;46.512;6.626;2022-12-07T08:05:12;96848.63;;;7.84;56.42
60228;BME280;46091;46.512;6.626;2022-12-07T08:07:16;96849.63;;;7.83;56.14
60228;BME280;46091;46.512;6.626;2022-12-07T08:09:19;96853.25;;;7.82;55.95
60228;BME280;46091;46.512;6.626;2022-12-07T08:11:26;96853.91;;;7.76;55.81
60228;BME280;46091;46.512;6.626;2022-12-07T08:13:29;96855.72;;;7.75;55.96
60228;BME280;46091;46.512;6.626;2022-12-07T08:15:37;96857.56;;;7.75;55.57
60228;BME280;46091;46.512;6.626;2022-12-07T08:17:40;96858.59;;;7.66;55.50
60228;BME280;46091;46.512;6.626;2022-12-07T08:19:43;96851.81;;;7.71;55.57
60228;BME280;46091;46.512;6.626;2022-12-07T08:21:46;96858.94;;;7.63;55.55
60228;BME280;46091;46.512;6.626;2022-12-07T08:23:49;96848.88;;;7.66;55.64
60228;BME280;46091;46.512;6.626;2022-12-07T08:25:55;96851.31;;;7.68;55.59
60228;BME280;46091;46.512;6.626;2022-12-07T08:28:05;96858.75;;;7.64;55.30
60228;BME280;46091;46.512;6.626;2022-12-07T08:30:08;96849.25;;;7.55;55.40
60228;BME280;46091;46.512;6.626;2022-12-07T08:32:12;96859.69;;;7.48;55.14
60228;BME280;46091;46.512;6.626;2022-12-07T08:34:18;96865.91;;;7.47;55.38
60228;BME280;46091;46.512;6.626;2022-12-07T08:36:21;96870.06;;;7.42;55.33
60228;BME280;46091;46.512;6.626;2022-12-07T08:38:25;96861.16;;;7.43;55.54
60228;BME280;46091;46.512;6.626;2022-12-07T08:40:32;96864.44;;;7.45;55.13
60228;BME280;46091;46.512;6.626;2022-12-07T08:42:35;96867.88;;;7.45;54.98
60228;BME280;46091;46.512;6.626;2022-12-07T08:44:41;96867.56;;;7.48;55.33
60228;BME280;46091;46.512;6.626;2022-12-07T08:46:52;96867.03;;;7.53;54.97
60228;BME280;46091;46.512;6.626;2022-12-07T08:49:02;96870.03;;;7.50;54.78
60228;BME280;46091;46.512;6.626;2022-12-07T08:51:06;96870.69;;;7.44;54.81
60228;BME280;46091;46.512;6.626;2022-12-07T08:53:09;96866.59;;;7.41;55.02
60228;BME280;46091;46.512;6.626;2022-12-07T08:55:12;96873.47;;;7.50;54.98
60228;BME280;46091;46.512;6.626;2022-12-07T08:57:20;96867.84;;;7.53;54.65
60228;BME280;46091;46.512;6.626;2022-12-07T08:59:23;96863.78;;;7.43;54.63
60228;BME280;46091;46.512;6.626;2022-12-07T09:01:27;96866.44;;;7.43;54.97
60228;BME280;46091;46.512;6.626;2022-12-07T09:03:31;96870.56;;;7.37;54.57
60228;BME280;46091;46.512;6.626;2022-12-07T09:05:35;96865.78;;;7.41;54.61
60228;BME280;46091;46.512;6.626;2022-12-07T09:07:38;96869.09;;;7.35;54.35
60228;BME280;46091;46.512;6.626;2022-12-07T09:09:41;96880.13;;;7.30;54.59
60228;BME280;46091;46.512;6.626;2022-12-07T09:11:44;96878.66;;;7.27;54.86
60228;BME280;46091;46.512;6.626;2022-12-07T09:13:48;96873.91;;;7.23;54.80
60228;BME280;46091;46.512;6.626;2022-12-07T09:15:51;96877.88;;;7.19;54.81
60228;BME280;46091;46.512;6.626;2022-12-07T09:17:56;96888.84;;;7.22;54.85
60228;BME280;46091;46.512;6.626;2022-12-07T09:19:59;96884.41;;;7.31;54.70
60228;BME280;46091;46.512;6.626;2022-12-07T09:22:05;96882.09;;;7.36;54.78
60228;BME280;46091;46.512;6.626;2022-12-07T09:24:07;96880.75;;;7.40;54.60
60228;BME280;46091;46.512;6.626;2022-12-07T09:26:11;96877.94;;;7.42;54.43
60228;BME280;46091;46.512;6.626;2022-12-07T09:28:16;96884.66;;;7.44;54.53
60228;BME280;46091;46.512;6.626;2022-12-07T09:30:19;96879.56;;;7.43;54.61
60228;BME280;46091;46.512;6.626;2022-12-07T09:32:22;96886.66;;;7.42;54.41
60228;BME280;46091;46.512;6.626;2022-12-07T09:34:25;96888.44;;;7.50;54.38
60228;BME280;46091;46.512;6.626;2022-12-07T09:36:29;96888.25;;;7.51;54.37
60228;BME280;46091;46.512;6.626;2022-12-07T09:38:33;96894.84;;;7.47;54.17
60228;BME280;46091;46.512;6.626;2022-12-07T09:40:36;96885.69;;;7.35;54.00
60228;BME280;46091;46.512;6.626;2022-12-07T09:42:43;96893.09;;;7.32;54.41
60228;BME280;46091;46.512;6.626;2022-12-07T09:44:46;96889.28;;;7.42;54.40
60228;BME280;46091;46.512;6.626;2022-12-07T09:46:49;96902.88;;;7.54;54.47
60228;BME280;46091;46.512;6.626;2022-12-07T09:48:54;96903.94;;;7.68;54.11
60228;BME280;46091;46.512;6.626;2022-12-07T09:51:00;96898.31;;;7.79;54.14
60228;BME280;46091;46.512;6.626;2022-12-07T09:53:07;96900.72;;;7.88;53.93
60228;BME280;46091;46.512;6.626;2022-12-07T09:55:15;96898.41;;;7.94;53.69
60228;BME280;46091;46.512;6.626;2022-12-07T09:57:22;96896.88;;;7.99;53.87
60228;BME280;46091;46.512;6.626;2022-12-07T09:59:28;96896.84;;;8.07;53.75
60228;BME280;46091;46.512;6.626;2022-12-07T10:01:38;96890.66;;;8.15;53.62
60228;BME280;46091;46.512;6.626;2022-12-07T10:03:46;96879.44;;;8.21;53.69
60228;BME280;46091;46.512;6.626;2022-12-07T10:05:51;96878.91;;;8.26;53.45
60228;BME280;46091;46.512;6.626;2022-12-07T10:07:55;96887.13;;;8.31;53.51
60228;BME280;46091;46.512;6.626;2022-12-07T10:09:58;96883.47;;;8.32;53.49
60228;BME280;46091;46.512;6.626;2022-12-07T10:12:04;96885.78;;;8.35;53.36
60228;BME280;46091;46.512;6.626;2022-12-07T10:14:12;96874.88;;;8.38;53.32
60228;BME280;46091;46.512;6.626;2022-12-07T10:16:37;96878.81;;;8.42;53.44
60228;BME280;46091;46.512;6.626;2022-12-07T10:18:41;96879.28;;;8.45;53.44
60228;BME280;46091;46.512;6.626;2022-12-07T10:20:46;96882.03;;;8.52;53.08
60228;BME280;46091;46.512;6.626;2022-12-07T10:23:03;96875.78;;;8.53;53.18
60228;BME280;46091;46.512;6.626;2022-12-07T10:25:18;96864.22;;;8.54;53.06
60228;BME280;46091;46.512;6.626;2022-12-07T10:27:31;96863.88;;;8.57;53.03
60228;BME280;46091;46.512;6.626;2022-12-07T10:29:36;96860.22;;;8.58;53.22
60228;BME280;46091;46.512;6.626;2022-12-07T10:31:40;96864.50;;;8.59;53.21
60228;BME280;46091;46.512;6.626;2022-12-07T10:33:49;96859.06;;;8.61;53.32
60228;BME280;46091;46.512;6.626;2022-12-07T10:35:53;96863.16;;;8.63;53.15
60228;BME280;46091;46.512;6.626;2022-12-07T10:37:57;96858.06;;;8.62;53.09
60228;BME280;46091;46.512;6.626;2022-12-07T10:40:00;96847.34;;;8.63;53.31
60228;BME280;46091;46.512;6.626;2022-12-07T10:42:03;96849.81;;;8.65;52.95
60228;BME280;46091;46.512;6.626;2022-12-07T10:44:21;96853.88;;;8.67;53.04
60228;BME280;46091;46.512;6.626;2022-12-07T10:46:57;96849.44;;;8.68;53.21
60228;BME280;46091;46.512;6.626;2022-12-07T10:49:13;96844.78;;;8.70;52.74
60228;BME280;46091;46.512;6.626;2022-12-07T10:51:27;96842.78;;;8.72;52.92
60228;BME280;46091;46.512;6.626;2022-12-07T10:53:49;96839.00;;;8.74;52.89
60228;BME280;46091;46.512;6.626;2022-12-07T10:56:06;96845.91;;;8.75;52.73
60228;BME280;46091;46.512;6.626;2022-12-07T10:58:37;96833.38;;;8.78;52.90
60228;BME280;46091;46.512;6.626;2022-12-07T11:00:53;96825.47;;;8.78;53.07
60228;BME280;46091;46.512;6.626;2022-12-07T11:03:15;96832.56;;;8.77;52.87
60228;BME280;46091;46.512;6.626;2022-12-07T11:05:26;96824.63;;;8.77;52.87
60228;BME280;46091;46.512;6.626;2022-12-07T11:07:38;96822.81;;;8.78;53.00
60228;BME280;46091;46.512;6.626;2022-12-07T11:09:52;96832.72;;;8.75;52.63
60228;BME280;46091;46.512;6.626;2022-12-07T11:12:14;96830.09;;;8.75;52.72
60228;BME280;46091;46.512;6.626;2022-12-07T11:14:26;96813.91;;;8.79;53.06
60228;BME280;46091;46.512;6.626;2022-12-07T11:16:43;96818.19;;;8.80;52.60
60228;BME280;46091;46.512;6.626;2022-12-07T11:18:59;96815.16;;;8.83;52.70
60228;BME280;46091;46.512;6.626;2022-12-07T11:21:09;96815.16;;;8.83;52.51
60228;BME280;46091;46.512;6.626;2022-12-07T11:23:21;96814.84;;;8.86;52.84
60228;BME280;46091;46.512;6.626;2022-12-07T11:25:32;96812.19;;;8.86;52.59
60228;BME280;46091;46.512;6.626;2022-12-07T11:27:45;96805.94;;;8.87;52.52
60228;BME280;46091;46.512;6.626;2022-12-07T11:29:56;96797.38;;;8.85;52.52
60228;BME280;46091;46.512;6.626;2022-12-07T11:32:09;96796.09;;;8.81;52.28
60228;BME280;46091;46.512;6.626;2022-12-07T11:34:20;96793.56;;;8.72;52.35
60228;BME280;46091;46.512;6.626;2022-12-07T11:36:35;96786.63;;;8.71;52.69
60228;BME280;46091;46.512;6.626;2022-12-07T11:38:43;96779.19;;;8.60;52.65
60228;BME280;46091;46.512;6.626;2022-12-07T11:40:49;96782.47;;;8.62;52.60
60228;BME280;46091;46.512;6.626;2022-12-07T11:42:57;96776.84;;;8.65;52.82
60228;BME280;46091;46.512;6.626;2022-12-07T11:45:10;96778.72;;;8.71;52.87
60228;BME280;46091;46.512;6.626;2022-12-07T11:47:22;96773.09;;;8.74;52.81
60228;BME280;46091;46.512;6.626;2022-12-07T11:49:40;96774.19;;;8.80;52.36
60228;BME280;46091;46.512;6.626;2022-12-07T11:51:44;96765.84;;;8.77;52.71
60228;BME280;46091;46.512;6.626;2022-12-07T11:53:54;96766.47;;;8.79;52.58
60228;BME280;46091;46.512;6.626;2022-12-07T11:56:06;96772.38;;;8.81;52.52
60228;BME280;46091;46.512;6.626;2022-12-07T11:58:35;96766.75;;;8.84;52.42
60228;BME280;46091;46.512;6.626;2022-12-07T12:00:41;96769.19;;;8.85;52.25
60228;BME280;46091;46.512;6.626;2022-12-07T12:02:51;96768.19;;;8.86;52.65
60228;BME280;46091;46.512;6.626;2022-12-07T12:04:59;96762.75;;;8.88;52.39
60228;BME280;46091;46.512;6.626;2022-12-07T12:07:06;96765.81;;;8.91;52.39
60228;BME280;46091;46.512;6.626;2022-12-07T12:09:33;96758.38;;;8.95;52.37
60228;BME280;46091;46.512;6.626;2022-12-07T12:11:48;96748.66;;;8.95;52.39
60228;BME280;46091;46.512;6.626;2022-12-07T12:14:33;96760.63;;;8.98;52.29
60228;BME280;46091;46.512;6.626;2022-12-07T12:17:08;96761.63;;;8.82;52.09
60228;BME280;46091;46.512;6.626;2022-12-07T12:19:23;96750.47;;;8.65;52.25
60228;BME280;46091;46.512;6.626;2022-12-07T12:21:29;96746.72;;;8.60;52.10
60228;BME280;46091;46.512;6.626;2022-12-07T12:23:39;96745.09;;;8.59;52.10
60228;BME280;46091;46.512;6.626;2022-12-07T12:25:45;96749.47;;;8.52;52.27
60228;BME280;46091;46.512;6.626;2022-12-07T12:27:50;96743.03;;;8.54;52.35
60228;BME280;46091;46.512;6.626;2022-12-07T12:29:55;96754.00;;;8.58;52.13
60228;BME280;46091;46.512;6.626;2022-12-07T12:32:17;96747.28;;;8.55;52.12
60228;BME280;46091;46.512;6.626;2022-12-07T12:34:41;96742.66;;;8.57;52.23
60228;BME280;46091;46.512;6.626;2022-12-07T12:36:54;96738.50;;;8.63;52.07
60228;BME280;46091;46.512;6.626;2022-12-07T12:39:12;96736.13;;;8.68;52.32
60228;BME280;46091;46.512;6.626;2022-12-07T12:44:38;96732.94;;;8.72;52.32
60228;BME280;46091;46.512;6.626;2022-12-07T12:46:47;96734.66;;;8.65;52.24
60228;BME280;46091;46.512;6.626;2022-12-07T12:49:19;96726.13;;;8.63;51.97
60228;BME280;46091;46.512;6.626;2022-12-07T12:51:39;96727.66;;;8.58;51.89
60228;BME280;46091;46.512;6.626;2022-12-07T12:53:42;96728.75;;;8.49;52.28
60228;BME280;46091;46.512;6.626;2022-12-07T12:56:03;96725.94;;;8.50;52.37
60228;BME280;46091;46.512;6.626;2022-12-07T12:58:40;96720.69;;;8.50;52.22
60228;BME280;46091;46.512;6.626;2022-12-07T13:00:45;96713.22;;;8.54;52.14
60228;BME280;46091;46.512;6.626;2022-12-07T13:02:50;96712.41;;;8.53;51.96
60228;BME280;46091;46.512;6.626;2022-12-07T13:04:57;96713.66;;;8.57;52.39
60228;BME280;46091;46.512;6.626;2022-12-07T13:07:03;96714.03;;;8.54;51.99
60228;BME280;46091;46.512;6.626;2022-12-07T13:09:18;96708.13;;;8.52;52.01
60228;BME280;46091;46.512;6.626;2022-12-07T13:11:28;96708.59;;;8.56;52.32
60228;BME280;46091;46.512;6.626;2022-12-07T13:13:34;96716.78;;;8.61;52.10
60228;BME280;46091;46.512;6.626;2022-12-07T13:15:38;96712.31;;;8.61;51.85
60228;BME280;46091;46.512;6.626;2022-12-07T13:18:01;96711.41;;;8.54;52.08
60228;BME280;46091;46.512;6.626;2022-12-07T13:20:42;96707.78;;;8.55;51.96
60228;BME280;46091;46.512;6.626;2022-12-07T13:22:49;96703.50;;;8.54;52.18
60228;BME280;46091;46.512;6.626;2022-12-07T13:24:54;96698.84;;;8.56;51.84
60228;BME280;46091;46.512;6.626;2022-12-07T13:26:58;96703.13;;;8.57;52.02
60228;BME280;46091;46.512;6.626;2022-12-07T13:29:07;96702.50;;;8.55;52.03
60228;BME280;46091;46.512;6.626;2022-12-07T13:31:23;96700.06;;;8.54;52.09
60228;BME280;46091;46.512;6.626;2022-12-07T13:33:30;96691.41;;;8.60;52.06
60228;BME280;46091;46.512;6.626;2022-12-07T13:35:37;96693.13;;;8.67;51.84
60228;BME280;46091;46.512;6.626;2022-12-07T13:37:40;96692.56;;;8.72;52.05
60228;BME280;46091;46.512;6.626;2022-12-07T13:39:46;96689.41;;;8.77;51.74
60228;BME280;46091;46.512;6.626;2022-12-07T13:41:51;96686.19;;;8.81;52.06
60228;BME280;46091;46.512;6.626;2022-12-07T13:44:03;96687.47;;;8.85;51.60
60228;BME280;46091;46.512;6.626;2022-12-07T13:46:08;96682.94;;;8.79;51.70
60228;BME280;46091;46.512;6.626;2022-12-07T13:48:21;96683.13;;;8.78;51.78
60228;BME280;46091;46.512;6.626;2022-12-07T13:50:29;96687.00;;;8.82;51.65
60228;BME280;46091;46.512;6.626;2022-12-07T13:52:32;96684.66;;;8.87;51.62
60228;BME280;46091;46.512;6.626;2022-12-07T13:54:43;96688.09;;;8.87;51.53
60228;BME280;46091;46.512;6.626;2022-12-07T13:56:50;96684.13;;;8.77;51.81
60228;BME280;46091;46.512;6.626;2022-12-07T13:58:54;96684.50;;;8.73;51.75
60228;BME280;46091;46.512;6.626;2022-12-07T14:00:57;96675.31;;;8.69;51.78
60228;BME280;46091;46.512;6.626;2022-12-07T14:03:01;96680.38;;;8.71;51.83
60228;BME280;46091;46.512;6.626;2022-12-07T14:05:14;96671.13;;;8.75;51.90
60228;BME280;46091;46.512;6.626;2022-12-07T14:07:23;96673.78;;;8.75;51.47
60228;BME280;46091;46.512;6.626;2022-12-07T14:09:27;96671.66;;;8.70;51.77
60228;BME280;46091;46.512;6.626;2022-12-07T14:11:31;96666.88;;;8.74;51.65
60228;BME280;46091;46.512;6.626;2022-12-07T14:13:37;96668.31;;;8.77;51.59
60228;BME280;46091;46.512;6.626;2022-12-07T14:15:40;96669.56;;;8.81;51.76
60228;BME280;46091;46.512;6.626;2022-12-07T14:17:50;96664.66;;;8.78;51.58
60228;BME280;46091;46.512;6.626;2022-12-07T14:19:55;96667.94;;;8.80;51.70
60228;BME280;46091;46.512;6.626;2022-12-07T14:22:06;96665.69;;;8.77;51.58
60228;BME280;46091;46.512;6.626;2022-12-07T14:24:14;96664.03;;;8.75;51.66
60228;BME280;46091;46.512;6.626;2022-12-07T14:26:20;96666.69;;;8.75;51.80
60228;BME280;46091;46.512;6.626;2022-12-07T14:28:27;96663.41;;;8.73;51.86
60228;BME280;46091;46.512;6.626;2022-12-07T14:30:32;96661.78;;;8.72;51.71
60228;BME280;46091;46.512;6.626;2022-12-07T14:32:37;96666.50;;;8.77;51.85
60228;BME280;46091;46.512;6.626;2022-12-07T14:34:41;96671.38;;;8.80;51.79
60228;BME280;46091;46.512;6.626;2022-12-07T14:36:44;96667.56;;;8.83;51.79
60228;BME280;46091;46.512;6.626;2022-12-07T14:38:47;96669.03;;;8.85;51.66
60228;BME280;46091;46.512;6.626;2022-12-07T14:40:50;96672.47;;;8.86;51.96
60228;BME280;46091;46.512;6.626;2022-12-07T14:42:55;96669.84;;;8.86;51.67
60228;BME280;46091;46.512;6.626;2022-12-07T14:44:59;96664.38;;;8.87;51.65
60228;BME280;46091;46.512;6.626;2022-12-07T14:47:04;96672.09;;;8.89;51.76
60228;BME280;46091;46.512;6.626;2022-12-07T14:49:27;96668.03;;;8.86;51.70
60228;BME280;46091;46.512;6.626;2022-12-07T14:51:36;96677.38;;;8.89;51.58
60228;BME280;46091;46.512;6.626;2022-12-07T14:54:00;96676.94;;;8.85;51.89
60228;BME280;46091;46.512;6.626;2022-12-07T14:56:03;96678.56;;;8.86;51.65
60228;BME280;46091;46.512;6.626;2022-12-07T14:58:12;96674.75;;;8.89;51.72
60228;BME280;46091;46.512;6.626;2022-12-07T15:00:17;96681.00;;;8.88;51.60
60228;BME280;46091;46.512;6.626;2022-12-07T15:02:22;96669.66;;;8.87;51.54
60228;BME280;46091;46.512;6.626;2022-12-07T15:04:25;96672.91;;;8.89;51.84
60228;BME280;46091;46.512;6.626;2022-12-07T15:06:28;96674.94;;;8.87;51.71
60228;BME280;46091;46.512;6.626;2022-12-07T15:08:31;96675.31;;;8.84;51.51
60228;BME280;46091;46.512;6.626;2022-12-07T15:10:34;96666.75;;;8.82;51.46
60228;BME280;46091;46.512;6.626;2022-12-07T15:12:40;96676.47;;;8.82;51.67
60228;BME280;46091;46.512;6.626;2022-12-07T15:14:42;96672.13;;;8.74;51.78
60228;BME280;46091;46.512;6.626;2022-12-07T15:16:45;96669.41;;;8.67;51.69
60228;BME280;46091;46.512;6.626;2022-12-07T15:19:12;96666.25;;;8.57;51.75
60228;BME280;46091;46.512;6.626;2022-12-07T15:21:31;96663.97;;;8.54;51.94
60228;BME280;46091;46.512;6.626;2022-12-07T15:23:33;96660.97;;;8.57;52.26
60228;BME280;46091;46.512;6.626;2022-12-07T15:25:49;96657.63;;;8.63;51.86
60228;BME280;46091;46.512;6.626;2022-12-07T15:28:05;96662.13;;;8.69;51.68
60228;BME280;46091;46.512;6.626;2022-12-07T15:30:08;96665.03;;;8.74;51.65
60228;BME280;46091;46.512;6.626;2022-12-07T15:32:12;96661.03;;;8.79;51.78
60228;BME280;46091;46.512;6.626;2022-12-07T15:34:17;96667.75;;;8.81;51.74
60228;BME280;46091;46.512;6.626;2022-12-07T15:36:21;96667.56;;;8.83;51.65
60228;BME280;46091;46.512;6.626;2022-12-07T15:38:24;96662.66;;;8.80;51.66
60228;BME280;46091;46.512;6.626;2022-12-07T15:40:48;96660.66;;;8.82;51.87
60228;BME280;46091;46.512;6.626;2022-12-07T15:42:51;96657.66;;;8.85;51.53
60228;BME280;46091;46.512;6.626;2022-12-07T15:44:54;96660.75;;;8.88;51.69
60228;BME280;46091;46.512;6.626;2022-12-07T15:47:06;96657.91;;;8.90;51.92
60228;BME280;46091;46.512;6.626;2022-12-07T15:49:12;96649.19;;;8.89;51.82
60228;BME280;46091;46.512;6.626;2022-12-07T15:51:16;96655.91;;;8.92;51.73
60228;BME280;46091;46.512;6.626;2022-12-07T15:53:25;96648.00;;;8.92;51.87
60228;BME280;46091;46.512;6.626;2022-12-07T15:55:28;96661.44;;;8.97;51.82
60228;BME280;46091;46.512;6.626;2022-12-07T15:57:32;96655.19;;;8.98;51.63
60228;BME280;46091;46.512;6.626;2022-12-07T15:59:35;96651.34;;;9.00;51.47
60228;BME280;46091;46.512;6.626;2022-12-07T16:01:38;96649.53;;;9.01;51.65
60228;BME280;46091;46.512;6.626;2022-12-07T16:03:40;96655.81;;;9.00;51.86
60228;BME280;46091;46.512;6.626;2022-12-07T16:05:48;96650.34;;;9.01;51.91
60228;BME280;46091;46.512;6.626;2022-12-07T16:07:52;96655.41;;;9.03;51.81
60228;BME280;46091;46.512;6.626;2022-12-07T16:09:55;96654.59;;;9.02;51.68
60228;BME280;46091;46.512;6.626;2022-12-07T16:11:58;96653.78;;;9.02;51.98
60228;BME280;46091;46.512;6.626;2022-12-07T16:14:01;96649.53;;;9.01;51.63
60228;BME280;46091;46.512;6.626;2022-12-07T16:16:04;96651.16;;;9.02;51.73
60228;BME280;46091;46.512;6.626;2022-12-07T16:18:07;96651.16;;;9.02;51.43
60228;BME280;46091;46.512;6.626;2022-12-07T16:20:10;96646.44;;;8.97;51.63
60228;BME280;46091;46.512;6.626;2022-12-07T16:22:13;96645.97;;;8.94;51.61
60228;BME280;46091;46.512;6.626;2022-12-07T16:24:17;96643.53;;;8.92;51.75
60228;BME280;46091;46.512;6.626;2022-12-07T16:26:21;96647.38;;;8.90;51.49
60228;BME280;46091;46.512;6.626;2022-12-07T16:28:24;96650.56;;;8.85;51.45
60228;BME280;46091;46.512;6.626;2022-12-07T16:30:27;96648.84;;;8.78;51.44
60228;BME280;46091;46.512;6.626;2022-12-07T16:32:29;96655.31;;;8.75;51.47
60228;BME280;46091;46.512;6.626;2022-12-07T16:34:32;96651.25;;;8.72;51.85
60228;BME280;46091;46.512;6.626;2022-12-07T16:36:35;96652.88;;;8.73;51.37
60228;BME280;46091;46.512;6.626;2022-12-07T16:38:58;96654.69;;;8.73;51.75
60228;BME280;46091;46.512;6.626;2022-12-07T16:41:03;96651.06;;;8.74;51.46
60228;BME280;46091;46.512;6.626;2022-12-07T16:43:06;96654.13;;;8.78;51.71
60228;BME280;46091;46.512;6.626;2022-12-07T16:45:09;96650.09;;;8.82;51.48
60228;BME280;46091;46.512;6.626;2022-12-07T16:47:18;96659.03;;;8.81;51.25
60228;BME280;46091;46.512;6.626;2022-12-07T16:49:21;96651.88;;;8.74;51.29
60228;BME280;46091;46.512;6.626;2022-12-07T16:51:25;96650.25;;;8.73;51.53
60228;BME280;46091;46.512;6.626;2022-12-07T16:53:28;96644.31;;;8.71;51.67
60228;BME280;46091;46.512;6.626;2022-12-07T16:55:31;96644.69;;;8.68;51.19
60228;BME280;46091;46.512;6.626;2022-12-07T16:57:36;96646.94;;;8.71;51.61
60228;BME280;46091;46.512;6.626;2022-12-07T16:59:39;96637.97;;;8.66;51.46
60228;BME280;46091;46.512;6.626;2022-12-07T17:01:42;96637.97;;;8.66;51.56
60228;BME280;46091;46.512;6.626;2022-12-07T17:03:45;96639.41;;;8.68;51.26
60228;BME280;46091;46.512;6.626;2022-12-07T17:05:48;96645.50;;;8.69;51.46
60228;BME280;46091;46.512;6.626;2022-12-07T17:07:51;96642.69;;;8.70;51.13
60228;BME280;46091;46.512;6.626;2022-12-07T17:09:54;96636.78;;;8.68;51.28
60228;BME280;46091;46.512;6.626;2022-12-07T17:11:57;96640.97;;;8.63;51.10
60228;BME280;46091;46.512;6.626;2022-12-07T17:14:01;96639.06;;;8.57;50.95
60228;BME280;46091;46.512;6.626;2022-12-07T17:16:36;96637.25;;;8.57;51.28
60228;BME280;46091;46.512;6.626;2022-12-07T17:18:39;96643.47;;;8.50;50.88
60228;BME280;46091;46.512;6.626;2022-12-07T17:20:42;96643.38;;;8.43;51.13
60228;BME280;46091;46.512;6.626;2022-12-07T17:22:47;96643.75;;;8.40;51.00
60228;BME280;46091;46.512;6.626;2022-12-07T17:24:50;96641.63;;;8.35;51.16
60228;BME280;46091;46.512;6.626;2022-12-07T17:26:53;96640.28;;;8.39;51.01
60228;BME280;46091;46.512;6.626;2022-12-07T17:28:55;96632.81;;;8.43;50.84